sensor_id;sensor_type;location;lat;lon;timestamp;temperature;humidity
36212;DHT22;22247;48.586;13.492;2023-04-19T00:00:10;7.50;99.90
36212;DHT22;22247;48.586;13.492;2023-04-19T00:02:36;7.50;99.90
36212;DHT22;22247;48.586;13.492;2023-04-19T00:05:02;7.50;99.90
36212;DHT22;22247;48.586;13.492;2023-04-19T00:09:56;7.40;99.90
36212;DHT22;22247;48.586;13.492;2023-04-19T00:12:21;7.30;99.90
36212;DHT22;22247;48.586;13.492;2023-04-19T00:14:49;8.20;99.90
36212;DHT22;22247;48.586;13.492;2023-04-19T00:17:15;7.10;99.90
36212;DHT22;22247;48.586;13.492;2023-04-19T00:19:41;7.10;99.90
36212;DHT22;22247;48.586;13.492;2023-04-19T00:22:07;7.50;99.90
36212;DHT22;22247;48.586;13.492;2023-04-19T00:24:35;7.00;99.90
36212;DHT22;22247;48.586;13.492;2023-04-19T00:27:00;7.10;99.90
36212;DHT22;22247;48.586;13.492;2023-04-19T00:29:26;6.60;99.90
36212;DHT22;22247;48.586;13.492;2023-04-19T00:31:52;6.90;99.90
36212;DHT22;22247;48.586;13.492;2023-04-19T00:34:18;6.80;99.90
36212;DHT22;22247;48.586;13.492;2023-04-19T00:36:43;6.70;99.90
36212;DHT22;22247;48.586;13.492;2023-04-19T00:39:09;6.70;99.90
36212;DHT22;22247;48.586;13.492;2023-04-19T00:41:34;6.90;99.90
36212;DHT22;22247;48.586;13.492;2023-04-19T00:44:00;6.10;99.90
36212;DHT22;22247;48.586;13.492;2023-04-19T00:46:28;6.50;99.90
36212;DHT22;22247;48.586;13.492;2023-04-19T00:48:54;6.40;99.90
36212;DHT22;22247;48.586;13.492;2023-04-19T00:51:20;7.00;99.90
36212;DHT22;22247;48.586;13.492;2023-04-19T00:53:47;7.00;99.90
36212;DHT22;22247;48.586;13.492;2023-04-19T00:56:15;7.10;99.90
36212;DHT22;22247;48.586;13.492;2023-04-19T00:58:42;6.60;99.90
36212;DHT22;22247;48.586;13.492;2023-04-19T01:01:07;6.20;99.90
36212;DHT22;22247;48.586;13.492;2023-04-19T01:03:33;6.10;99.90
36212;DHT22;22247;48.586;13.492;2023-04-19T01:06:01;6.30;99.90
36212;DHT22;22247;48.586;13.492;2023-04-19T01:08:27;6.40;99.90
36212;DHT22;22247;48.586;13.492;2023-04-19T01:13:18;6.30;99.90
36212;DHT22;22247;48.586;13.492;2023-04-19T01:15:46;5.80;99.90
36212;DHT22;22247;48.586;13.492;2023-04-19T01:18:12;6.30;99.90
36212;DHT22;22247;48.586;13.492;2023-04-19T01:20:38;6.10;99.90
36212;DHT22;22247;48.586;13.492;2023-04-19T01:23:04;6.70;99.90
36212;DHT22;22247;48.586;13.492;2023-04-19T01:25:38;6.40;99.90
36212;DHT22;22247;48.586;13.492;2023-04-19T01:28:04;7.00;99.90
36212;DHT22;22247;48.586;13.492;2023-04-19T01:30:33;6.50;99.90
36212;DHT22;22247;48.586;13.492;2023-04-19T01:32:59;5.90;99.90
36212;DHT22;22247;48.586;13.492;2023-04-19T01:35:27;6.00;99.90
36212;DHT22;22247;48.586;13.492;2023-04-19T01:37:53;6.00;99.90
36212;DHT22;22247;48.586;13.492;2023-04-19T01:40:23;5.90;99.90
36212;DHT22;22247;48.586;13.492;2023-04-19T01:42:49;5.90;99.90
36212;DHT22;22247;48.586;13.492;2023-04-19T01:45:15;5.50;99.90
36212;DHT22;22247;48.586;13.492;2023-04-19T01:47:40;5.90;99.90
36212;DHT22;22247;48.586;13.492;2023-04-19T01:50:06;5.30;99.90
36212;DHT22;22247;48.586;13.492;2023-04-19T01:52:34;5.70;99.90
36212;DHT22;22247;48.586;13.492;2023-04-19T01:55:02;5.70;99.90
36212;DHT22;22247;48.586;13.492;2023-04-19T01:57:27;5.90;99.90
36212;DHT22;22247;48.586;13.492;2023-04-19T01:59:53;5.70;99.90
36212;DHT22;22247;48.586;13.492;2023-04-19T02:02:19;6.60;99.90
36212;DHT22;22247;48.586;13.492;2023-04-19T02:04:44;5.20;99.90
36212;DHT22;22247;48.586;13.492;2023-04-19T02:07:10;5.70;99.90
36212;DHT22;22247;48.586;13.492;2023-04-19T02:09:36;6.00;99.90
36212;DHT22;22247;48.586;13.492;2023-04-19T02:12:03;5.70;99.90
36212;DHT22;22247;48.586;13.492;2023-04-19T02:14:32;5.50;99.90
36212;DHT22;22247;48.586;13.492;2023-04-19T02:16:59;4.80;99.90
36212;DHT22;22247;48.586;13.492;2023-04-19T02:19:25;5.50;99.90
36212;DHT22;22247;48.586;13.492;2023-04-19T02:21:53;5.40;99.90
36212;DHT22;22247;48.586;13.492;2023-04-19T02:24:23;6.40;99.90
36212;DHT22;22247;48.586;13.492;2023-04-19T02:26:49;5.50;99.90
36212;DHT22;22247;48.586;13.492;2023-04-19T02:29:14;5.60;99.90
36212;DHT22;22247;48.586;13.492;2023-04-19T02:31:41;6.20;99.90
36212;DHT22;22247;48.586;13.492;2023-04-19T02:34:07;5.40;99.90
36212;DHT22;22247;48.586;13.492;2023-04-19T02:36:35;6.10;99.90
36212;DHT22;22247;48.586;13.492;2023-04-19T02:39:03;5.00;99.90
36212;DHT22;22247;48.586;13.492;2023-04-19T02:41:30;5.80;99.90
36212;DHT22;22247;48.586;13.492;2023-04-19T02:43:55;5.40;99.90
36212;DHT22;22247;48.586;13.492;2023-04-19T02:46:21;5.70;99.90
36212;DHT22;22247;48.586;13.492;2023-04-19T02:48:49;5.40;99.90
36212;DHT22;22247;48.586;13.492;2023-04-19T02:51:17;5.40;99.90
36212;DHT22;22247;48.586;13.492;2023-04-19T02:53:43;5.50;99.90
36212;DHT22;22247;48.586;13.492;2023-04-19T02:56:11;5.40;99.90
36212;DHT22;22247;48.586;13.492;2023-04-19T02:58:37;5.50;99.90
36212;DHT22;22247;48.586;13.492;2023-04-19T03:01:02;5.50;99.90
36212;DHT22;22247;48.586;13.492;2023-04-19T03:03:30;5.50;99.90
36212;DHT22;22247;48.586;13.492;2023-04-19T03:05:58;5.90;99.90
36212;DHT22;22247;48.586;13.492;2023-04-19T03:08:24;5.20;99.90
36212;DHT22;22247;48.586;13.492;2023-04-19T03:10:49;5.40;99.90
36212;DHT22;22247;48.586;13.492;2023-04-19T03:13:15;5.50;99.90
36212;DHT22;22247;48.586;13.492;2023-04-19T03:15:41;6.20;99.90
36212;DHT22;22247;48.586;13.492;2023-04-19T03:18:06;5.20;99.90
36212;DHT22;22247;48.586;13.492;2023-04-19T03:20:32;5.50;99.90
36212;DHT22;22247;48.586;13.492;2023-04-19T03:22:58;6.20;99.90
36212;DHT22;22247;48.586;13.492;2023-04-19T03:25:24;6.30;99.90
36212;DHT22;22247;48.586;13.492;2023-04-19T03:27:50;5.10;99.90
36212;DHT22;22247;48.586;13.492;2023-04-19T03:30:16;5.50;99.90
36212;DHT22;22247;48.586;13.492;2023-04-19T03:32:47;5.40;99.90
36212;DHT22;22247;48.586;13.492;2023-04-19T03:35:13;5.40;99.90
36212;DHT22;22247;48.586;13.492;2023-04-19T03:37:38;5.70;99.90
36212;DHT22;22247;48.586;13.492;2023-04-19T03:40:07;5.50;99.90
36212;DHT22;22247;48.586;13.492;2023-04-19T03:42:33;5.50;99.90
36212;DHT22;22247;48.586;13.492;2023-04-19T03:44:59;5.30;99.90
36212;DHT22;22247;48.586;13.492;2023-04-19T03:47:24;6.30;99.90
36212;DHT22;22247;48.586;13.492;2023-04-19T03:49:50;5.30;99.90
36212;DHT22;22247;48.586;13.492;2023-04-19T03:52:15;5.40;99.90
36212;DHT22;22247;48.586;13.492;2023-04-19T03:54:43;5.60;99.90
36212;DHT22;22247;48.586;13.492;2023-04-19T03:57:16;4.60;99.90
36212;DHT22;22247;48.586;13.492;2023-04-19T03:59:42;5.60;99.90
36212;DHT22;22247;48.586;13.492;2023-04-19T04:02:10;5.80;99.90
36212;DHT22;22247;48.586;13.492;2023-04-19T04:04:36;6.10;99.90
36212;DHT22;22247;48.586;13.492;2023-04-19T04:07:01;5.50;99.90
36212;DHT22;22247;48.586;13.492;2023-04-19T04:09:29;5.50;99.90
36212;DHT22;22247;48.586;13.492;2023-04-19T04:11:55;5.50;99.90
36212;DHT22;22247;48.586;13.492;2023-04-19T04:14:20;5.50;99.90
36212;DHT22;22247;48.586;13.492;2023-04-19T04:16:50;6.00;99.90
36212;DHT22;22247;48.586;13.492;2023-04-19T04:19:16;5.50;99.90
36212;DHT22;22247;48.586;13.492;2023-04-19T04:21:46;5.60;99.90
36212;DHT22;22247;48.586;13.492;2023-04-19T04:24:14;5.70;99.90
36212;DHT22;22247;48.586;13.492;2023-04-19T04:26:42;6.00;99.90
36212;DHT22;22247;48.586;13.492;2023-04-19T04:29:07;5.70;99.90
36212;DHT22;22247;48.586;13.492;2023-04-19T04:31:33;6.90;99.90
36212;DHT22;22247;48.586;13.492;2023-04-19T04:34:02;6.00;99.90
36212;DHT22;22247;48.586;13.492;2023-04-19T04:36:30;5.90;99.90
36212;DHT22;22247;48.586;13.492;2023-04-19T04:38:57;6.00;99.90
36212;DHT22;22247;48.586;13.492;2023-04-19T04:41:27;5.90;99.90
36212;DHT22;22247;48.586;13.492;2023-04-19T04:43:59;6.00;99.90
36212;DHT22;22247;48.586;13.492;2023-04-19T04:46:25;5.80;99.90
36212;DHT22;22247;48.586;13.492;2023-04-19T04:48:52;6.60;99.90
36212;DHT22;22247;48.586;13.492;2023-04-19T04:51:18;5.60;99.90
36212;DHT22;22247;48.586;13.492;2023-04-19T04:53:45;6.80;99.90
36212;DHT22;22247;48.586;13.492;2023-04-19T04:56:16;5.90;99.90
36212;DHT22;22247;48.586;13.492;2023-04-19T04:58:45;6.00;99.90
36212;DHT22;22247;48.586;13.492;2023-04-19T05:01:10;5.40;99.90
36212;DHT22;22247;48.586;13.492;2023-04-19T05:03:36;6.60;99.90
36212;DHT22;22247;48.586;13.492;2023-04-19T05:06:04;6.00;99.90
36212;DHT22;22247;48.586;13.492;2023-04-19T05:08:30;6.00;99.90
36212;DHT22;22247;48.586;13.492;2023-04-19T05:10:55;5.90;99.90
36212;DHT22;22247;48.586;13.492;2023-04-19T05:13:21;5.90;99.90
36212;DHT22;22247;48.586;13.492;2023-04-19T05:15:49;6.70;99.90
36212;DHT22;22247;48.586;13.492;2023-04-19T05:18:15;6.10;99.90
36212;DHT22;22247;48.586;13.492;2023-04-19T05:20:40;6.20;99.90
36212;DHT22;22247;48.586;13.492;2023-04-19T05:23:06;6.70;99.90
36212;DHT22;22247;48.586;13.492;2023-04-19T05:25:32;6.50;99.90
36212;DHT22;22247;48.586;13.492;2023-04-19T05:27:58;6.30;99.90
36212;DHT22;22247;48.586;13.492;2023-04-19T05:30:23;6.30;99.90
36212;DHT22;22247;48.586;13.492;2023-04-19T05:32:49;6.30;99.90
36212;DHT22;22247;48.586;13.492;2023-04-19T05:35:16;5.70;99.90
36212;DHT22;22247;48.586;13.492;2023-04-19T05:37:42;6.40;99.90
36212;DHT22;22247;48.586;13.492;2023-04-19T05:40:08;6.50;99.90
36212;DHT22;22247;48.586;13.492;2023-04-19T05:42:34;6.60;99.90
36212;DHT22;22247;48.586;13.492;2023-04-19T05:45:03;6.50;99.90
36212;DHT22;22247;48.586;13.492;2023-04-19T05:47:31;6.70;99.90
36212;DHT22;22247;48.586;13.492;2023-04-19T05:49:59;6.80;99.90
36212;DHT22;22247;48.586;13.492;2023-04-19T05:52:25;7.10;99.90
36212;DHT22;22247;48.586;13.492;2023-04-19T05:54:50;6.70;99.90
36212;DHT22;22247;48.586;13.492;2023-04-19T05:57:16;7.00;99.90
36212;DHT22;22247;48.586;13.492;2023-04-19T05:59:46;6.90;99.90
36212;DHT22;22247;48.586;13.492;2023-04-19T06:02:12;7.10;99.90
36212;DHT22;22247;48.586;13.492;2023-04-19T06:04:37;7.20;99.90
36212;DHT22;22247;48.586;13.492;2023-04-19T06:07:05;7.70;99.90
36212;DHT22;22247;48.586;13.492;2023-04-19T06:09:31;6.90;99.90
36212;DHT22;22247;48.586;13.492;2023-04-19T06:11:59;8.50;99.90
36212;DHT22;22247;48.586;13.492;2023-04-19T06:14:27;8.00;99.90
36212;DHT22;22247;48.586;13.492;2023-04-19T06:16:55;7.60;99.90
36212;DHT22;22247;48.586;13.492;2023-04-19T06:19:21;7.90;99.90
36212;DHT22;22247;48.586;13.492;2023-04-19T06:21:47;7.70;99.90
36212;DHT22;22247;48.586;13.492;2023-04-19T06:24:15;7.70;99.90
36212;DHT22;22247;48.586;13.492;2023-04-19T06:26:40;7.90;99.90
36212;DHT22;22247;48.586;13.492;2023-04-19T06:29:06;7.10;99.90
36212;DHT22;22247;48.586;13.492;2023-04-19T06:31:32;7.50;99.90
36212;DHT22;22247;48.586;13.492;2023-04-19T06:34:00;7.30;99.90
36212;DHT22;22247;48.586;13.492;2023-04-19T06:36:25;7.40;99.90
36212;DHT22;22247;48.586;13.492;2023-04-19T06:38:51;7.50;99.90
36212;DHT22;22247;48.586;13.492;2023-04-19T06:41:17;7.60;99.90
36212;DHT22;22247;48.586;13.492;2023-04-19T06:43:45;7.90;99.90
36212;DHT22;22247;48.586;13.492;2023-04-19T06:46:15;7.50;99.90
36212;DHT22;22247;48.586;13.492;2023-04-19T06:48:41;7.70;99.90
36212;DHT22;22247;48.586;13.492;2023-04-19T06:51:09;7.70;99.90
36212;DHT22;22247;48.586;13.492;2023-04-19T06:53:34;8.10;99.90
36212;DHT22;22247;48.586;13.492;2023-04-19T06:56:04;7.80;99.90
36212;DHT22;22247;48.586;13.492;2023-04-19T06:58:30;7.90;99.90
36212;DHT22;22247;48.586;13.492;2023-04-19T07:00:58;8.00;99.90
36212;DHT22;22247;48.586;13.492;2023-04-19T07:03:25;8.70;99.90
36212;DHT22;22247;48.586;13.492;2023-04-19T07:05:51;8.20;99.90
36212;DHT22;22247;48.586;13.492;2023-04-19T07:08:19;8.30;99.90
36212;DHT22;22247;48.586;13.492;2023-04-19T07:10:45;8.40;99.90
36212;DHT22;22247;48.586;13.492;2023-04-19T07:13:12;8.80;99.90
36212;DHT22;22247;48.586;13.492;2023-04-19T07:15:38;8.90;99.90
36212;DHT22;22247;48.586;13.492;2023-04-19T07:18:04;9.30;99.90
36212;DHT22;22247;48.586;13.492;2023-04-19T07:20:30;9.20;99.90
36212;DHT22;22247;48.586;13.492;2023-04-19T07:22:59;9.30;99.90
36212;DHT22;22247;48.586;13.492;2023-04-19T07:25:25;9.20;99.90
36212;DHT22;22247;48.586;13.492;2023-04-19T07:27:54;9.20;99.90
36212;DHT22;22247;48.586;13.492;2023-04-19T07:30:21;9.10;99.90
36212;DHT22;22247;48.586;13.492;2023-04-19T07:32:46;9.10;99.90
36212;DHT22;22247;48.586;13.492;2023-04-19T07:35:12;9.20;99.90
36212;DHT22;22247;48.586;13.492;2023-04-19T07:37:38;9.40;99.90
36212;DHT22;22247;48.586;13.492;2023-04-19T07:40:04;8.60;99.90
36212;DHT22;22247;48.586;13.492;2023-04-19T07:42:30;9.20;99.90
36212;DHT22;22247;48.586;13.492;2023-04-19T07:44:56;9.20;99.90
36212;DHT22;22247;48.586;13.492;2023-04-19T07:47:21;9.20;99.90
36212;DHT22;22247;48.586;13.492;2023-04-19T07:49:54;9.20;99.90
36212;DHT22;22247;48.586;13.492;2023-04-19T07:52:22;9.30;99.90
36212;DHT22;22247;48.586;13.492;2023-04-19T07:54:48;9.50;99.90
36212;DHT22;22247;48.586;13.492;2023-04-19T07:57:18;9.60;99.90
36212;DHT22;22247;48.586;13.492;2023-04-19T07:59:43;9.60;99.90
36212;DHT22;22247;48.586;13.492;2023-04-19T08:02:09;9.70;99.90
36212;DHT22;22247;48.586;13.492;2023-04-19T08:04:35;9.60;99.90
36212;DHT22;22247;48.586;13.492;2023-04-19T08:07:03;9.30;99.90
36212;DHT22;22247;48.586;13.492;2023-04-19T08:09:29;9.70;99.90
36212;DHT22;22247;48.586;13.492;2023-04-19T08:11:57;9.60;99.90
36212;DHT22;22247;48.586;13.492;2023-04-19T08:14:22;9.50;99.90
36212;DHT22;22247;48.586;13.492;2023-04-19T08:16:48;9.40;99.90
36212;DHT22;22247;48.586;13.492;2023-04-19T08:19:13;9.30;99.90
36212;DHT22;22247;48.586;13.492;2023-04-19T08:21:41;9.30;99.90
36212;DHT22;22247;48.586;13.492;2023-04-19T08:24:07;9.50;99.90
36212;DHT22;22247;48.586;13.492;2023-04-19T08:26:33;9.30;99.90
36212;DHT22;22247;48.586;13.492;2023-04-19T08:29:03;9.50;99.90
36212;DHT22;22247;48.586;13.492;2023-04-19T08:31:29;9.20;99.90
36212;DHT22;22247;48.586;13.492;2023-04-19T08:33:54;9.30;99.90
36212;DHT22;22247;48.586;13.492;2023-04-19T08:36:23;9.20;99.90
36212;DHT22;22247;48.586;13.492;2023-04-19T08:38:49;9.40;99.90
36212;DHT22;22247;48.586;13.492;2023-04-19T08:41:17;9.30;99.90
36212;DHT22;22247;48.586;13.492;2023-04-19T08:43:46;9.10;99.90
36212;DHT22;22247;48.586;13.492;2023-04-19T08:46:17;9.10;99.90
36212;DHT22;22247;48.586;13.492;2023-04-19T08:48:43;9.10;99.90
36212;DHT22;22247;48.586;13.492;2023-04-19T08:51:11;9.10;99.90
36212;DHT22;22247;48.586;13.492;2023-04-19T08:53:41;8.70;99.90
36212;DHT22;22247;48.586;13.492;2023-04-19T08:56:06;9.50;99.90
36212;DHT22;22247;48.586;13.492;2023-04-19T08:58:32;9.20;99.90
36212;DHT22;22247;48.586;13.492;2023-04-19T09:00:58;9.00;99.90
36212;DHT22;22247;48.586;13.492;2023-04-19T09:03:24;10.10;99.90
36212;DHT22;22247;48.586;13.492;2023-04-19T09:05:50;8.60;99.90
36212;DHT22;22247;48.586;13.492;2023-04-19T09:08:28;9.00;99.90
36212;DHT22;22247;48.586;13.492;2023-04-19T09:10:58;9.00;99.90
36212;DHT22;22247;48.586;13.492;2023-04-19T09:13:25;8.90;99.90
36212;DHT22;22247;48.586;13.492;2023-04-19T09:15:51;8.80;99.90
36212;DHT22;22247;48.586;13.492;2023-04-19T09:18:18;8.90;99.90
36212;DHT22;22247;48.586;13.492;2023-04-19T09:20:44;8.90;99.90
36212;DHT22;22247;48.586;13.492;2023-04-19T09:23:16;8.90;99.90
36212;DHT22;22247;48.586;13.492;2023-04-19T09:25:53;9.30;99.90
36212;DHT22;22247;48.586;13.492;2023-04-19T09:28:21;8.90;99.90
36212;DHT22;22247;48.586;13.492;2023-04-19T09:30:47;8.90;99.90
36212;DHT22;22247;48.586;13.492;2023-04-19T09:33:12;8.90;99.90
36212;DHT22;22247;48.586;13.492;2023-04-19T09:38:07;9.00;99.90
36212;DHT22;22247;48.586;13.492;2023-04-19T09:40:33;9.40;99.90
36212;DHT22;22247;48.586;13.492;2023-04-19T09:43:00;9.00;99.90
36212;DHT22;22247;48.586;13.492;2023-04-19T09:45:26;9.10;99.90
36212;DHT22;22247;48.586;13.492;2023-04-19T09:48:03;9.10;99.90
36212;DHT22;22247;48.586;13.492;2023-04-19T09:50:29;9.10;99.90
36212;DHT22;22247;48.586;13.492;2023-04-19T09:52:56;9.40;99.90
36212;DHT22;22247;48.586;13.492;2023-04-19T09:55:23;9.10;99.90
36212;DHT22;22247;48.586;13.492;2023-04-19T09:57:51;9.10;99.90
36212;DHT22;22247;48.586;13.492;2023-04-19T10:00:17;9.80;99.90
36212;DHT22;22247;48.586;13.492;2023-04-19T10:02:50;9.20;99.90
36212;DHT22;22247;48.586;13.492;2023-04-19T10:05:23;9.30;99.90
36212;DHT22;22247;48.586;13.492;2023-04-19T10:07:49;9.30;99.90
36212;DHT22;22247;48.586;13.492;2023-04-19T10:10:18;9.30;99.90
36212;DHT22;22247;48.586;13.492;2023-04-19T10:12:50;9.30;99.90
36212;DHT22;22247;48.586;13.492;2023-04-19T10:15:18;9.20;99.90
36212;DHT22;22247;48.586;13.492;2023-04-19T10:17:47;9.30;99.90
36212;DHT22;22247;48.586;13.492;2023-04-19T10:20:21;9.40;99.90
36212;DHT22;22247;48.586;13.492;2023-04-19T10:22:48;9.30;99.90
36212;DHT22;22247;48.586;13.492;2023-04-19T10:25:17;9.40;99.90
36212;DHT22;22247;48.586;13.492;2023-04-19T10:27:43;9.20;99.90
36212;DHT22;22247;48.586;13.492;2023-04-19T10:30:31;9.10;99.90
36212;DHT22;22247;48.586;13.492;2023-04-19T10:32:58;9.60;99.90
36212;DHT22;22247;48.586;13.492;2023-04-19T10:35:25;9.10;99.90
36212;DHT22;22247;48.586;13.492;2023-04-19T10:38:11;9.20;99.90
36212;DHT22;22247;48.586;13.492;2023-04-19T10:40:59;9.10;99.90
36212;DHT22;22247;48.586;13.492;2023-04-19T10:43:32;9.00;99.90
36212;DHT22;22247;48.586;13.492;2023-04-19T10:46:12;9.00;99.90
36212;DHT22;22247;48.586;13.492;2023-04-19T10:48:49;9.10;99.90
36212;DHT22;22247;48.586;13.492;2023-04-19T10:51:20;9.00;99.90
36212;DHT22;22247;48.586;13.492;2023-04-19T10:53:59;9.10;99.90
36212;DHT22;22247;48.586;13.492;2023-04-19T11:01:45;8.80;99.90
36212;DHT22;22247;48.586;13.492;2023-04-19T11:04:14;8.90;99.90
36212;DHT22;22247;48.586;13.492;2023-04-19T11:12:02;9.10;99.90
36212;DHT22;22247;48.586;13.492;2023-04-19T11:14:34;9.30;99.90
36212;DHT22;22247;48.586;13.492;2023-04-19T11:17:02;9.40;99.90
36212;DHT22;22247;48.586;13.492;2023-04-19T11:19:28;9.50;99.90
36212;DHT22;22247;48.586;13.492;2023-04-19T11:21:57;9.70;99.90
36212;DHT22;22247;48.586;13.492;2023-04-19T11:24:24;9.60;99.90
36212;DHT22;22247;48.586;13.492;2023-04-19T11:26:54;9.40;99.90
36212;DHT22;22247;48.586;13.492;2023-04-19T11:29:25;9.40;99.90
36212;DHT22;22247;48.586;13.492;2023-04-19T11:31:53;9.40;99.90
36212;DHT22;22247;48.586;13.492;2023-04-19T11:34:22;10.00;99.90
36212;DHT22;22247;48.586;13.492;2023-04-19T11:36:52;9.30;99.90
36212;DHT22;22247;48.586;13.492;2023-04-19T11:39:18;9.20;99.90
36212;DHT22;22247;48.586;13.492;2023-04-19T11:41:44;9.60;99.90
36212;DHT22;22247;48.586;13.492;2023-04-19T11:44:18;8.60;99.90
36212;DHT22;22247;48.586;13.492;2023-04-19T11:46:57;9.00;99.90
36212;DHT22;22247;48.586;13.492;2023-04-19T11:49:30;9.30;99.90
36212;DHT22;22247;48.586;13.492;2023-04-19T11:52:00;9.10;99.90
36212;DHT22;22247;48.586;13.492;2023-04-19T11:54:26;9.20;99.90
36212;DHT22;22247;48.586;13.492;2023-04-19T11:56:57;9.20;99.90
36212;DHT22;22247;48.586;13.492;2023-04-19T11:59:23;9.20;99.90
36212;DHT22;22247;48.586;13.492;2023-04-19T12:01:48;9.20;99.90
36212;DHT22;22247;48.586;13.492;2023-04-19T12:04:14;9.00;99.90
36212;DHT22;22247;48.586;13.492;2023-04-19T12:06:40;9.20;99.90
36212;DHT22;22247;48.586;13.492;2023-04-19T12:09:06;9.20;99.90
36212;DHT22;22247;48.586;13.492;2023-04-19T12:11:43;9.50;99.90
36212;DHT22;22247;48.586;13.492;2023-04-19T12:14:11;9.20;99.90
36212;DHT22;22247;48.586;13.492;2023-04-19T12:16:37;9.10;99.90
36212;DHT22;22247;48.586;13.492;2023-04-19T12:19:14;10.10;99.90
36212;DHT22;22247;48.586;13.492;2023-04-19T12:21:40;9.20;99.90
36212;DHT22;22247;48.586;13.492;2023-04-19T12:24:08;9.10;99.90
36212;DHT22;22247;48.586;13.492;2023-04-19T12:26:54;9.20;99.90
36212;DHT22;22247;48.586;13.492;2023-04-19T12:29:20;9.20;99.90
36212;DHT22;22247;48.586;13.492;2023-04-19T12:31:45;9.70;99.90
36212;DHT22;22247;48.586;13.492;2023-04-19T12:34:11;9.30;99.90
36212;DHT22;22247;48.586;13.492;2023-04-19T12:36:39;9.40;99.90
36212;DHT22;22247;48.586;13.492;2023-04-19T12:39:04;9.50;99.90
36212;DHT22;22247;48.586;13.492;2023-04-19T12:41:31;10.00;99.90
36212;DHT22;22247;48.586;13.492;2023-04-19T12:43:59;9.60;99.90
36212;DHT22;22247;48.586;13.492;2023-04-19T12:46:25;9.40;99.90
36212;DHT22;22247;48.586;13.492;2023-04-19T12:48:50;9.30;99.90
36212;DHT22;22247;48.586;13.492;2023-04-19T12:51:18;9.10;99.90
36212;DHT22;22247;48.586;13.492;2023-04-19T12:53:47;8.90;99.90
36212;DHT22;22247;48.586;13.492;2023-04-19T12:56:14;8.90;99.90
36212;DHT22;22247;48.586;13.492;2023-04-19T12:58:40;8.70;99.90
36212;DHT22;22247;48.586;13.492;2023-04-19T13:01:06;8.50;99.90
36212;DHT22;22247;48.586;13.492;2023-04-19T13:03:34;8.90;99.90
36212;DHT22;22247;48.586;13.492;2023-04-19T13:06:03;8.30;99.90
36212;DHT22;22247;48.586;13.492;2023-04-19T13:08:29;8.60;99.90
36212;DHT22;22247;48.586;13.492;2023-04-19T13:10:55;8.50;99.90
36212;DHT22;22247;48.586;13.492;2023-04-19T13:13:21;8.20;99.90
36212;DHT22;22247;48.586;13.492;2023-04-19T13:15:46;9.50;99.90
36212;DHT22;22247;48.586;13.492;2023-04-19T13:18:12;8.50;99.90
36212;DHT22;22247;48.586;13.492;2023-04-19T13:20:38;8.70;99.90
36212;DHT22;22247;48.586;13.492;2023-04-19T13:23:06;8.10;99.90
36212;DHT22;22247;48.586;13.492;2023-04-19T13:25:31;7.70;99.90
36212;DHT22;22247;48.586;13.492;2023-04-19T13:27:57;8.10;99.90
36212;DHT22;22247;48.586;13.492;2023-04-19T13:30:22;8.20;99.90
36212;DHT22;22247;48.586;13.492;2023-04-19T13:32:48;8.30;99.90
36212;DHT22;22247;48.586;13.492;2023-04-19T13:35:13;8.30;99.90
36212;DHT22;22247;48.586;13.492;2023-04-19T13:37:42;7.30;99.90
36212;DHT22;22247;48.586;13.492;2023-04-19T13:40:11;8.70;99.90
36212;DHT22;22247;48.586;13.492;2023-04-19T13:42:37;8.00;99.90
36212;DHT22;22247;48.586;13.492;2023-04-19T13:45:03;8.00;99.90
36212;DHT22;22247;48.586;13.492;2023-04-19T13:47:28;7.90;99.90
36212;DHT22;22247;48.586;13.492;2023-04-19T13:49:54;7.80;99.90
36212;DHT22;22247;48.586;13.492;2023-04-19T13:52:22;8.00;99.90
36212;DHT22;22247;48.586;13.492;2023-04-19T13:54:48;8.90;99.90
36212;DHT22;22247;48.586;13.492;2023-04-19T13:57:19;8.00;99.90
36212;DHT22;22247;48.586;13.492;2023-04-19T13:59:44;8.00;99.90
36212;DHT22;22247;48.586;13.492;2023-04-19T14:02:12;7.40;99.90
36212;DHT22;22247;48.586;13.492;2023-04-19T14:04:38;7.60;99.90
36212;DHT22;22247;48.586;13.492;2023-04-19T14:07:03;7.50;99.90
36212;DHT22;22247;48.586;13.492;2023-04-19T14:09:31;7.40;99.90
36212;DHT22;22247;48.586;13.492;2023-04-19T14:11:57;7.60;99.90
36212;DHT22;22247;48.586;13.492;2023-04-19T14:14:25;7.30;99.90
36212;DHT22;22247;48.586;13.492;2023-04-19T14:16:51;7.40;99.90
36212;DHT22;22247;48.586;13.492;2023-04-19T14:19:16;7.20;99.90
36212;DHT22;22247;48.586;13.492;2023-04-19T14:21:44;7.20;99.90
36212;DHT22;22247;48.586;13.492;2023-04-19T14:24:10;7.60;99.90
36212;DHT22;22247;48.586;13.492;2023-04-19T14:26:38;7.60;99.90
36212;DHT22;22247;48.586;13.492;2023-04-19T14:29:06;7.00;99.90
36212;DHT22;22247;48.586;13.492;2023-04-19T14:31:36;7.40;99.90
36212;DHT22;22247;48.586;13.492;2023-04-19T14:34:04;6.90;99.90
36212;DHT22;22247;48.586;13.492;2023-04-19T14:36:32;6.30;99.90
36212;DHT22;22247;48.586;13.492;2023-04-19T14:39:00;6.80;99.90
36212;DHT22;22247;48.586;13.492;2023-04-19T14:41:26;6.90;99.90
36212;DHT22;22247;48.586;13.492;2023-04-19T14:43:51;7.20;99.90
36212;DHT22;22247;48.586;13.492;2023-04-19T14:46:19;8.40;99.90
36212;DHT22;22247;48.586;13.492;2023-04-19T14:48:45;7.00;99.90
36212;DHT22;22247;48.586;13.492;2023-04-19T14:51:13;7.10;99.90
36212;DHT22;22247;48.586;13.492;2023-04-19T14:53:38;7.20;99.90
36212;DHT22;22247;48.586;13.492;2023-04-19T14:56:07;7.50;99.90
36212;DHT22;22247;48.586;13.492;2023-04-19T14:58:32;7.30;99.90
36212;DHT22;22247;48.586;13.492;2023-04-19T15:00:58;8.10;99.90
36212;DHT22;22247;48.586;13.492;2023-04-19T15:03:26;7.20;99.90
36212;DHT22;22247;48.586;13.492;2023-04-19T15:05:51;8.00;99.90
36212;DHT22;22247;48.586;13.492;2023-04-19T15:08:17;7.40;99.90
36212;DHT22;22247;48.586;13.492;2023-04-19T15:10:42;7.60;99.90
36212;DHT22;22247;48.586;13.492;2023-04-19T15:13:10;7.50;99.90
36212;DHT22;22247;48.586;13.492;2023-04-19T15:15:38;7.70;99.90
36212;DHT22;22247;48.586;13.492;2023-04-19T15:18:06;7.70;99.90
36212;DHT22;22247;48.586;13.492;2023-04-19T15:20:37;7.50;99.90
36212;DHT22;22247;48.586;13.492;2023-04-19T15:23:03;7.90;99.90
36212;DHT22;22247;48.586;13.492;2023-04-19T15:25:31;7.90;99.90
36212;DHT22;22247;48.586;13.492;2023-04-19T15:27:56;8.10;99.90
36212;DHT22;22247;48.586;13.492;2023-04-19T15:30:26;8.00;99.90
36212;DHT22;22247;48.586;13.492;2023-04-19T15:32:54;8.00;99.90
36212;DHT22;22247;48.586;13.492;2023-04-19T15:35:20;7.90;99.90
36212;DHT22;22247;48.586;13.492;2023-04-19T15:37:48;7.90;99.90
36212;DHT22;22247;48.586;13.492;2023-04-19T15:40:13;7.90;99.90
36212;DHT22;22247;48.586;13.492;2023-04-19T15:42:41;8.10;99.90
36212;DHT22;22247;48.586;13.492;2023-04-19T15:45:07;7.90;99.90
36212;DHT22;22247;48.586;13.492;2023-04-19T15:47:35;7.80;99.90